createdAt,value
2024-04-09T00:00:55.517Z,0.8
2024-04-09T00:02:07.447Z,0.5
2024-04-09T00:03:19.485Z,0.8
2024-04-09T00:04:31.627Z,0
2024-04-09T00:05:43.533Z,0
2024-04-09T00:06:55.478Z,0
2024-04-09T00:08:10.867Z,0
2024-04-09T00:09:19.557Z,0
2024-04-09T00:10:31.462Z,0
2024-04-09T00:12:55.443Z,0
2024-04-09T00:14:07.476Z,0
2024-04-09T00:15:19.508Z,0
2024-04-09T00:16:31.448Z,0
2024-04-09T00:17:43.488Z,0
2024-04-09T00:18:55.550Z,0
2024-04-09T00:20:07.455Z,0
2024-04-09T00:21:19.482Z,0
2024-04-09T00:22:31.480Z,0
2024-04-09T00:23:43.459Z,0
2024-04-09T00:24:55.480Z,0
2024-04-09T00:26:07.468Z,0
2024-04-09T00:27:19.529Z,0
2024-04-09T00:28:31.589Z,0
2024-04-09T00:29:43.470Z,0
2024-04-09T00:30:55.450Z,0
2024-04-09T00:32:07.496Z,0
2024-04-09T00:33:19.770Z,0
2024-04-09T00:34:31.657Z,0
2024-04-09T00:35:43.481Z,0.5
2024-04-09T00:36:55.494Z,0.6
2024-04-09T00:38:07.482Z,0
2024-04-09T00:39:19.456Z,0
2024-04-09T00:40:31.480Z,0.7
2024-04-09T00:41:43.472Z,0.6
2024-04-09T00:42:55.467Z,0.5
2024-04-09T00:44:07.474Z,0
2024-04-09T00:45:19.469Z,0
2024-04-09T00:46:31.569Z,0
2024-04-09T00:47:45.018Z,0
2024-04-09T00:48:55.687Z,0
2024-04-09T00:50:07.516Z,0
2024-04-09T00:51:20.008Z,0
2024-04-09T00:52:31.926Z,0
2024-04-09T00:53:43.916Z,0.5
2024-04-09T00:54:55.900Z,0
2024-04-09T00:56:07.969Z,0
2024-04-09T00:57:19.897Z,0
2024-04-09T00:58:31.974Z,0
2024-04-09T00:59:43.886Z,0
2024-04-09T01:00:55.902Z,0.8
2024-04-09T01:02:07.885Z,1.1
2024-04-09T01:03:20.022Z,0.9
2024-04-09T01:04:32.137Z,0.6
2024-04-09T01:05:43.914Z,0.5
2024-04-09T01:06:55.932Z,0
2024-04-09T01:08:07.978Z,0
2024-04-09T01:09:19.899Z,0.7
2024-04-09T01:10:31.912Z,0.5
2024-04-09T01:11:43.914Z,0.5
2024-04-09T01:12:55.917Z,0
2024-04-09T01:14:07.872Z,0.7
2024-04-09T01:15:19.936Z,0
2024-04-09T01:16:31.974Z,0
2024-04-09T01:17:43.938Z,0
2024-04-09T01:18:55.982Z,0
2024-04-09T01:20:07.917Z,0.5
2024-04-09T01:21:19.944Z,0
2024-04-09T01:22:32.005Z,0
2024-04-09T01:23:43.916Z,0
2024-04-09T01:24:55.892Z,0.6
2024-04-09T01:26:07.893Z,0
2024-04-09T01:27:19.914Z,1
2024-04-09T01:28:31.957Z,0
2024-04-09T01:29:43.896Z,0
2024-04-09T01:30:55.894Z,0
2024-04-09T01:32:07.892Z,0
2024-04-09T01:33:20.003Z,0.5
2024-04-09T01:34:31.925Z,0.8
2024-04-09T01:35:43.878Z,0.7
2024-04-09T01:36:55.897Z,0
2024-04-09T01:38:07.899Z,0
2024-04-09T01:39:19.951Z,0
2024-04-09T01:40:31.918Z,0.5
2024-04-09T01:41:43.908Z,0
2024-04-09T01:42:55.925Z,0
2024-04-09T01:44:07.890Z,0
2024-04-09T01:45:19.936Z,0.5
2024-04-09T01:46:31.885Z,1.1
2024-04-09T01:47:43.940Z,0
2024-04-09T01:48:56.008Z,0.5
2024-04-09T01:50:07.904Z,0
2024-04-09T01:51:20.393Z,0
2024-04-09T01:52:32.339Z,0
2024-04-09T01:53:44.336Z,0
2024-04-09T01:54:56.334Z,0
2024-04-09T01:56:08.320Z,0
2024-04-09T01:57:20.388Z,0
2024-04-09T01:58:32.337Z,0.5
2024-04-09T01:59:44.347Z,0.6
2024-04-09T02:00:56.506Z,0
2024-04-09T02:02:08.336Z,0
2024-04-09T02:03:20.488Z,0
2024-04-09T02:04:32.347Z,0
2024-04-09T02:05:44.343Z,0
2024-04-09T02:06:56.352Z,0.7
2024-04-09T02:08:08.308Z,0
2024-04-09T02:09:20.402Z,0
2024-04-09T02:10:32.337Z,0.9
2024-04-09T02:11:44.493Z,0
2024-04-09T02:12:56.413Z,0
2024-04-09T02:14:08.326Z,0.6
2024-04-09T02:15:20.361Z,0
2024-04-09T02:16:32.335Z,0
2024-04-09T02:17:44.357Z,0
2024-04-09T02:18:56.509Z,0.7
2024-04-09T02:20:08.348Z,0
2024-04-09T02:21:20.346Z,0
2024-04-09T02:22:32.339Z,0
2024-04-09T02:23:44.337Z,0.9
2024-04-09T02:24:56.330Z,0.8
2024-04-09T02:26:08.335Z,0.9
2024-04-09T02:27:20.323Z,0.8
2024-04-09T02:28:32.322Z,0.7
2024-04-09T02:29:44.343Z,0.6
2024-04-09T02:30:56.381Z,1.1
2024-04-09T02:32:08.415Z,1
2024-04-09T02:33:20.399Z,0
2024-04-09T02:34:32.369Z,0
2024-04-09T02:35:44.331Z,0
2024-04-09T02:36:56.345Z,0
2024-04-09T02:38:08.332Z,0.6
2024-04-09T02:39:20.403Z,0.5
2024-04-09T02:40:32.360Z,0
2024-04-09T02:41:44.361Z,0
2024-04-09T02:42:56.321Z,0
2024-04-09T02:44:08.349Z,0.7
2024-04-09T02:45:20.397Z,0
2024-04-09T02:46:20.353Z,0.5
2024-04-09T02:47:32.383Z,0.6
2024-04-09T02:48:44.468Z,0
2024-04-09T02:49:56.325Z,0.6
2024-04-09T02:51:08.361Z,0.5
2024-04-09T02:52:20.796Z,0.8
2024-04-09T02:53:32.769Z,0.8
2024-04-09T02:54:44.801Z,0.9
2024-04-09T02:55:56.809Z,0.9
2024-04-09T02:57:08.846Z,0.6
2024-04-09T02:58:20.776Z,0.5
2024-04-09T02:59:32.781Z,0.8
2024-04-09T03:00:44.916Z,0.7
2024-04-09T03:01:56.815Z,0.7
2024-04-09T03:03:08.828Z,1
2024-04-09T03:04:21.000Z,0.9
2024-04-09T03:05:32.829Z,0
2024-04-09T03:07:56.776Z,0
2024-04-09T03:09:08.815Z,0
2024-04-09T03:10:20.763Z,0
2024-04-09T03:11:32.750Z,0
2024-04-09T03:12:44.903Z,0
2024-04-09T03:13:56.792Z,0
2024-04-09T03:15:08.827Z,0
2024-04-09T03:16:20.889Z,0
2024-04-09T03:17:32.784Z,0.5
2024-04-09T03:18:45.003Z,0
2024-04-09T03:19:56.851Z,0
2024-04-09T03:21:08.844Z,0
2024-04-09T03:22:20.771Z,0
2024-04-09T03:23:32.769Z,0
2024-04-09T03:24:44.820Z,0
2024-04-09T03:25:56.909Z,0.7
2024-04-09T03:27:08.810Z,0
2024-04-09T03:28:20.783Z,0.5
2024-04-09T03:29:32.784Z,0
2024-04-09T03:30:44.786Z,0.6
2024-04-09T03:31:56.775Z,1
2024-04-09T03:33:08.909Z,0.8
2024-04-09T03:34:20.795Z,0.6
2024-04-09T03:35:32.767Z,0.8
2024-04-09T03:36:44.863Z,0.7
2024-04-09T03:37:56.789Z,0.5
2024-04-09T03:39:08.971Z,0
2024-04-09T03:40:20.811Z,0.7
2024-04-09T03:41:32.760Z,0.6
2024-04-09T03:42:44.810Z,0
2024-04-09T03:43:56.768Z,0
2024-04-09T03:45:08.810Z,0.6
2024-04-09T03:46:20.874Z,0
2024-04-09T03:47:32.816Z,0
2024-04-09T03:48:45.551Z,0.6
2024-04-09T03:49:56.760Z,0.6
2024-04-09T03:51:09.219Z,0.5
2024-04-09T03:52:21.242Z,0.8
2024-04-09T03:53:33.208Z,0.8
2024-04-09T03:54:45.262Z,0
2024-04-09T03:55:57.204Z,0
2024-04-09T03:57:09.265Z,0
2024-04-09T03:58:21.229Z,0
2024-04-09T03:59:33.227Z,0
2024-04-09T04:00:45.310Z,0
2024-04-09T04:01:57.282Z,0.6
2024-04-09T04:03:09.312Z,0
2024-04-09T04:04:21.244Z,2.4
2024-04-09T04:05:33.212Z,0.6
2024-04-09T04:06:45.236Z,0.6
2024-04-09T04:07:57.240Z,0.9
2024-04-09T04:09:09.267Z,0.6
2024-04-09T04:10:21.212Z,0.5
2024-04-09T04:11:33.375Z,0.5
2024-04-09T04:12:45.234Z,0.6
2024-04-09T04:13:57.253Z,0
2024-04-09T04:15:09.232Z,0
2024-04-09T04:16:21.250Z,0
2024-04-09T04:17:33.243Z,0.7
2024-04-09T04:18:45.661Z,0.7
2024-04-09T04:19:57.235Z,0
2024-04-09T04:21:11.445Z,0
2024-04-09T04:22:21.254Z,0
2024-04-09T04:23:33.208Z,0
2024-04-09T04:24:45.215Z,0
2024-04-09T04:25:57.188Z,0
2024-04-09T04:28:21.234Z,0
2024-04-09T04:29:33.195Z,0
2024-04-09T04:30:45.224Z,0
2024-04-09T04:31:57.231Z,0
2024-04-09T04:33:09.321Z,0
2024-04-09T04:34:21.300Z,0
2024-04-09T04:35:33.229Z,0
2024-04-09T04:36:45.266Z,0
2024-04-09T04:37:57.242Z,0
2024-04-09T04:39:09.272Z,0
2024-04-09T04:40:21.252Z,0
2024-04-09T04:41:33.235Z,0.5
2024-04-09T04:42:45.217Z,0
2024-04-09T04:43:57.502Z,0
2024-04-09T04:45:09.315Z,0
2024-04-09T04:46:21.231Z,0.6
2024-04-09T04:47:33.301Z,0
2024-04-09T04:48:45.296Z,0
2024-04-09T04:49:57.186Z,0.8
2024-04-09T04:51:09.668Z,0.8
2024-04-09T04:52:21.647Z,0.5
2024-04-09T04:53:33.668Z,0.5
2024-04-09T04:54:45.798Z,0
2024-04-09T04:55:57.659Z,0
2024-04-09T04:57:09.717Z,0.9
2024-04-09T04:58:21.680Z,0.7
2024-04-09T04:59:33.660Z,1
2024-04-09T05:00:45.717Z,1
2024-04-09T05:01:57.661Z,1.4
2024-04-09T05:03:21.853Z,0.5
2024-04-09T05:04:33.831Z,0.5
2024-04-09T05:05:45.647Z,1
2024-04-09T05:06:57.663Z,2.1
2024-04-09T05:08:09.657Z,0
2024-04-09T05:09:33.710Z,0.5
2024-04-09T05:10:45.685Z,0
2024-04-09T05:11:57.673Z,0
2024-04-09T05:14:09.633Z,0
2024-04-09T05:15:21.629Z,0
2024-04-09T05:16:33.674Z,0
2024-04-09T05:17:45.740Z,0
2024-04-09T05:18:57.838Z,0
2024-04-09T05:20:09.623Z,0
2024-04-09T05:21:21.694Z,0
2024-04-09T05:22:33.624Z,0
2024-04-09T05:23:45.664Z,0
2024-04-09T05:24:57.654Z,0
2024-04-09T05:26:09.642Z,0
2024-04-09T05:27:21.719Z,0
2024-04-09T05:28:33.664Z,0
2024-04-09T05:29:45.640Z,0
2024-04-09T05:30:57.705Z,0
2024-04-09T05:32:09.719Z,0
2024-04-09T05:33:21.793Z,0
2024-04-09T05:34:33.681Z,0.8
2024-04-09T05:35:45.675Z,0.9
2024-04-09T05:36:57.705Z,0
2024-04-09T05:38:09.629Z,0.6
2024-04-09T05:39:21.647Z,1.1
2024-04-09T05:40:33.670Z,0
2024-04-09T05:41:33.688Z,0
2024-04-09T05:43:45.640Z,0.6
2024-04-09T05:44:57.647Z,0
2024-04-09T05:46:09.640Z,0
2024-04-09T05:47:21.680Z,0.5
2024-04-09T05:48:33.800Z,1.2
2024-04-09T05:49:45.692Z,0
2024-04-09T05:50:57.699Z,0
2024-04-09T05:52:10.112Z,0
2024-04-09T05:53:22.093Z,0
2024-04-09T05:54:34.092Z,0.5
2024-04-09T05:55:46.091Z,0.6
2024-04-09T05:56:58.119Z,0.5
2024-04-09T05:58:10.146Z,0.5
2024-04-09T05:59:22.090Z,0.8
2024-04-09T06:00:34.343Z,0.9
2024-04-09T06:02:58.209Z,0
2024-04-09T06:04:12.063Z,0
2024-04-09T06:05:22.075Z,0
2024-04-09T06:06:34.153Z,0
2024-04-09T06:07:46.064Z,0
2024-04-09T06:08:58.129Z,0
2024-04-09T06:10:10.114Z,0
2024-04-09T06:11:22.087Z,0
2024-04-09T06:12:34.379Z,0
2024-04-09T06:13:46.116Z,0
2024-04-09T06:14:58.167Z,0
2024-04-09T06:16:10.101Z,0
2024-04-09T06:17:22.113Z,0
2024-04-09T06:18:34.175Z,0.5
2024-04-09T06:19:46.164Z,0.6
2024-04-09T06:20:58.151Z,0.7
2024-04-09T06:22:10.110Z,0
2024-04-09T06:23:22.074Z,0
2024-04-09T06:24:34.127Z,0
2024-04-09T06:25:46.089Z,0.8
2024-04-09T06:26:58.256Z,0
2024-04-09T06:28:10.108Z,0
2024-04-09T06:29:22.092Z,0.7
2024-04-09T06:30:34.188Z,0.5
2024-04-09T06:31:46.135Z,0.7
2024-04-09T06:32:58.370Z,0
2024-04-09T06:34:10.162Z,0.9
2024-04-09T06:35:22.087Z,0
2024-04-09T06:36:34.128Z,0.7
2024-04-09T06:37:46.078Z,0.7
2024-04-09T06:38:58.146Z,0
2024-04-09T06:40:10.088Z,0
2024-04-09T06:41:22.092Z,0
2024-04-09T06:42:34.151Z,0
2024-04-09T06:43:46.095Z,0.6
2024-04-09T06:44:58.131Z,0.8
2024-04-09T06:46:10.086Z,0.5
2024-04-09T06:47:22.123Z,0.8
2024-04-09T06:48:37.075Z,0.8
2024-04-09T06:49:46.217Z,0.8
2024-04-09T06:50:58.080Z,0.6
2024-04-09T06:52:10.533Z,1
2024-04-09T06:53:22.520Z,1.1
2024-04-09T06:54:34.542Z,0.5
2024-04-09T06:55:46.530Z,0
2024-04-09T06:56:58.576Z,0.8
2024-04-09T06:58:10.517Z,1
2024-04-09T06:59:22.627Z,1.1
2024-04-09T07:00:34.582Z,1.5
2024-04-09T07:02:58.603Z,1.1
2024-04-09T07:04:10.801Z,2
2024-04-09T07:05:22.538Z,1.1
2024-04-09T07:06:34.611Z,2.1
2024-04-09T07:07:46.575Z,2.5
2024-04-09T07:08:58.607Z,0.6
2024-04-09T07:10:10.570Z,1
2024-04-09T07:11:22.570Z,0.8
2024-04-09T07:12:34.756Z,1.3
2024-04-09T07:13:46.523Z,0.8
2024-04-09T07:14:58.572Z,1.3
2024-04-09T07:16:10.507Z,0.7
2024-04-09T07:17:22.807Z,2.3
2024-04-09T07:18:35.876Z,2
2024-04-09T07:19:46.529Z,0.6
2024-04-09T07:20:58.571Z,0
2024-04-09T07:22:10.545Z,0.5
2024-04-09T07:23:22.611Z,1.5
2024-04-09T07:24:34.527Z,0
2024-04-09T07:25:46.536Z,0.6
2024-04-09T07:26:58.708Z,1.1
2024-04-09T07:28:10.532Z,1.2
2024-04-09T07:29:22.536Z,0.6
2024-04-09T07:30:34.564Z,0
2024-04-09T07:31:46.664Z,1.3
2024-04-09T07:32:58.536Z,0.7
2024-04-09T07:34:10.547Z,1.2
2024-04-09T07:35:22.580Z,0.8
2024-04-09T07:36:34.567Z,1.5
2024-04-09T07:37:46.519Z,2.5
2024-04-09T07:38:58.663Z,1.6
2024-04-09T07:40:10.502Z,0.5
2024-04-09T07:41:22.676Z,0.6
2024-04-09T07:42:34.607Z,2.1
2024-04-09T07:43:46.521Z,1.8
2024-04-09T07:44:58.582Z,1
2024-04-09T07:46:10.518Z,1.6
2024-04-09T07:47:22.706Z,2.4
2024-04-09T07:48:34.973Z,1.1
2024-04-09T07:49:47.056Z,1.5
2024-04-09T07:50:58.574Z,1.3
2024-04-09T07:52:10.951Z,0
2024-04-09T07:53:22.935Z,0.8
2024-04-09T07:54:35.022Z,1.2
2024-04-09T07:55:46.953Z,1.8
2024-04-09T07:56:59.166Z,1.6
2024-04-09T07:58:11.473Z,1.3
2024-04-09T07:59:22.933Z,1.6
2024-04-09T08:00:35.004Z,1.3
2024-04-09T08:01:46.984Z,1.1
2024-04-09T08:02:59.509Z,1.8
2024-04-09T08:04:11.293Z,2.4
2024-04-09T08:05:23.048Z,1.2
2024-04-09T08:06:35.164Z,1.8
2024-04-09T08:07:47.116Z,1
2024-04-09T08:08:59.325Z,3.1
2024-04-09T08:10:11.138Z,1
2024-04-09T08:11:23.104Z,1
2024-04-09T08:12:34.949Z,1.4
2024-04-09T08:13:46.941Z,2.5
2024-04-09T08:14:58.959Z,1.1
2024-04-09T08:16:10.956Z,1.2
2024-04-09T08:17:23.059Z,1.1
2024-04-09T08:18:35.226Z,1.1
2024-04-09T08:19:47.070Z,2.4
2024-04-09T08:20:58.943Z,1.8
2024-04-09T08:22:10.965Z,1.3
2024-04-09T08:23:22.960Z,2.3
2024-04-09T08:24:35.003Z,2.1
2024-04-09T08:25:47.016Z,0.8
2024-04-09T08:26:59.020Z,1.5
2024-04-09T08:28:10.960Z,1.9
2024-04-09T08:29:22.974Z,1.1
2024-04-09T08:30:35.059Z,1.9
2024-04-09T08:31:46.948Z,0.8
2024-04-09T08:32:59.019Z,1
2024-04-09T08:34:13.069Z,1.5
2024-04-09T08:35:23.016Z,1.1
2024-04-09T08:36:35.011Z,2.2
2024-04-09T08:37:47.053Z,2.6
2024-04-09T08:38:59.114Z,3.5
2024-04-09T08:40:10.981Z,2.3
2024-04-09T08:41:22.958Z,2.9
2024-04-09T08:42:34.952Z,2.7
2024-04-09T08:43:47.042Z,3.1
2024-04-09T08:44:59.051Z,2.4
2024-04-09T08:46:11.319Z,0.9
2024-04-09T08:47:23.000Z,1.3
2024-04-09T08:48:35.135Z,2.2
2024-04-09T08:49:47.499Z,2.3
2024-04-09T08:50:59.428Z,0.7
2024-04-09T08:52:11.462Z,0.6
2024-04-09T08:53:23.430Z,0.9
2024-04-09T08:54:35.562Z,0.8
2024-04-09T08:55:47.386Z,0.9
2024-04-09T08:56:59.424Z,0.9
2024-04-09T08:58:11.388Z,1.6
2024-04-09T08:59:23.419Z,2.9
2024-04-09T09:00:35.495Z,2.2
2024-04-09T09:01:47.412Z,1
2024-04-09T09:02:59.429Z,1.7
2024-04-09T09:04:11.482Z,2.2
2024-04-09T09:05:23.376Z,1
2024-04-09T09:06:35.411Z,2.5
2024-04-09T09:07:47.395Z,1.6
2024-04-09T09:08:59.434Z,1
2024-04-09T09:10:11.411Z,0.7
2024-04-09T09:11:23.428Z,0.6
2024-04-09T09:12:35.413Z,2.2
2024-04-09T09:13:47.437Z,2.5
2024-04-09T09:14:59.440Z,2.9
2024-04-09T09:16:11.404Z,1.5
2024-04-09T09:17:23.434Z,0.6
2024-04-09T09:18:35.475Z,0.8
2024-04-09T09:19:47.420Z,0.8
2024-04-09T09:20:59.457Z,1.8
2024-04-09T09:22:11.411Z,0.5
2024-04-09T09:23:23.444Z,1.8
2024-04-09T09:24:35.404Z,1
2024-04-09T09:25:47.404Z,1
2024-04-09T09:26:59.448Z,0.7
2024-04-09T09:28:11.418Z,1.1
2024-04-09T09:29:23.424Z,0.8
2024-04-09T09:30:35.440Z,0.9
2024-04-09T09:31:47.476Z,0.8
2024-04-09T09:32:59.420Z,1.9
2024-04-09T09:34:11.425Z,0
2024-04-09T09:35:23.400Z,0.8
2024-04-09T09:36:35.403Z,0.7
2024-04-09T09:37:47.424Z,0.5
2024-04-09T09:38:59.428Z,1.2
2024-04-09T09:40:11.419Z,2.4
2024-04-09T09:41:23.435Z,3.1
2024-04-09T09:42:35.436Z,0.8
2024-04-09T09:43:47.400Z,2.6
2024-04-09T09:44:59.511Z,2.4
2024-04-09T09:46:11.411Z,1.9
2024-04-09T09:47:23.413Z,2.9
2024-04-09T09:48:35.429Z,2.6
2024-04-09T09:49:48.030Z,1.5
2024-04-09T09:50:59.402Z,1.6
2024-04-09T09:52:11.419Z,1.8
2024-04-09T09:53:23.964Z,0
2024-04-09T09:54:35.436Z,1.1
2024-04-09T09:55:47.426Z,2.7
2024-04-09T09:56:59.425Z,1.8
2024-04-09T09:58:11.396Z,1
2024-04-09T09:59:23.402Z,0.7
2024-04-09T10:00:35.607Z,1.8
2024-04-09T10:01:47.379Z,1.8
2024-04-09T10:02:59.507Z,2.1
2024-04-09T10:04:11.536Z,2.4
2024-04-09T10:05:23.494Z,1.1
2024-04-09T10:06:35.425Z,2.2
2024-04-09T10:07:47.383Z,2.4
2024-04-09T10:08:59.409Z,1.9
2024-04-09T10:10:11.397Z,3.5
2024-04-09T10:11:23.414Z,1.9
2024-04-09T10:12:35.594Z,0.7
2024-04-09T10:13:47.381Z,1.8
2024-04-09T10:14:59.495Z,3.1
2024-04-09T10:16:11.386Z,1.1
2024-04-09T10:17:23.436Z,3
2024-04-09T10:18:35.679Z,2.4
2024-04-09T10:19:47.383Z,2.9
2024-04-09T10:20:59.436Z,2.2
2024-04-09T10:22:11.412Z,2.6
2024-04-09T10:23:23.418Z,2.9
2024-04-09T10:24:35.439Z,2.1
2024-04-09T10:25:47.441Z,2.6
2024-04-09T10:26:59.436Z,2.7
2024-04-09T10:28:11.430Z,3.2
2024-04-09T10:29:23.393Z,2.4
2024-04-09T10:30:35.543Z,0.8
2024-04-09T10:31:47.382Z,2.6
2024-04-09T10:32:59.579Z,2.5
2024-04-09T10:34:11.483Z,1.6
2024-04-09T10:35:23.399Z,0.8
2024-04-09T10:36:35.443Z,1.1
2024-04-09T10:37:47.379Z,2.2
2024-04-09T10:38:59.437Z,0.7
2024-04-09T10:40:11.415Z,2.1
2024-04-09T10:41:23.384Z,0.8
2024-04-09T10:42:35.613Z,2.4
2024-04-09T10:43:47.413Z,2.9
2024-04-09T10:44:59.449Z,2.4
2024-04-09T10:46:13.579Z,4.8
2024-04-09T10:47:23.436Z,3.4
2024-04-09T10:48:35.533Z,2.4
2024-04-09T10:49:47.384Z,6.2
2024-04-09T10:50:59.478Z,3.6
2024-04-09T10:52:11.379Z,5.1
2024-04-09T10:53:23.385Z,2.2
2024-04-09T10:54:35.464Z,4
2024-04-09T10:55:47.396Z,3.4
2024-04-09T10:56:59.583Z,1.7
2024-04-09T10:58:11.388Z,2.5
2024-04-09T10:59:23.436Z,0.8
2024-04-09T11:00:35.405Z,4.8
2024-04-09T11:01:47.462Z,1.5
2024-04-09T11:02:59.446Z,2.2
2024-04-09T11:04:11.443Z,1.1
2024-04-09T11:05:23.411Z,2.4
2024-04-09T11:06:35.400Z,3.6
2024-04-09T11:07:47.409Z,1.5
2024-04-09T11:08:59.461Z,1.9
2024-04-09T11:10:11.416Z,1.5
2024-04-09T11:11:23.527Z,0.9
2024-04-09T11:12:35.429Z,1.1
2024-04-09T11:13:47.445Z,1.9
2024-04-09T11:14:59.627Z,1.1
2024-04-09T11:16:11.408Z,0.7
2024-04-09T11:17:23.470Z,1.6
2024-04-09T11:18:35.766Z,2.2
2024-04-09T11:19:50.135Z,1.8
2024-04-09T11:20:59.472Z,2.4
2024-04-09T11:22:11.398Z,2.1
2024-04-09T11:23:23.385Z,1.5
2024-04-09T11:24:35.438Z,2.2
2024-04-09T11:25:47.425Z,4
2024-04-09T11:26:59.427Z,2.6
2024-04-09T11:28:11.406Z,2.1
2024-04-09T11:29:23.414Z,2.6
2024-04-09T11:30:35.437Z,2.9
2024-04-09T11:31:47.422Z,1.3
2024-04-09T11:32:59.533Z,2.3
2024-04-09T11:34:11.501Z,3.2
2024-04-09T11:35:23.393Z,1
2024-04-09T11:36:35.576Z,2.6
2024-04-09T11:37:47.472Z,2.5
2024-04-09T11:38:59.433Z,1.3
2024-04-09T11:40:11.388Z,1.1
2024-04-09T11:41:23.409Z,2.6
2024-04-09T11:42:35.454Z,2.7
2024-04-09T11:43:47.411Z,2.6
2024-04-09T11:44:59.442Z,1.1
2024-04-09T11:46:11.413Z,1
2024-04-09T11:47:23.491Z,2.4
2024-04-09T11:48:35.468Z,1.9
2024-04-09T11:49:47.420Z,4
2024-04-09T11:50:59.436Z,2.4
2024-04-09T11:52:11.432Z,1.5
2024-04-09T11:53:24.161Z,1.8
2024-04-09T11:54:35.541Z,1.9
2024-04-09T11:55:47.390Z,3.2
2024-04-09T11:56:59.416Z,2.5
2024-04-09T11:58:11.430Z,1.1
2024-04-09T11:59:23.423Z,0.7
2024-04-09T12:00:35.467Z,1.1
2024-04-09T12:02:59.424Z,1.5
2024-04-09T12:04:11.608Z,0.7
2024-04-09T12:05:23.604Z,1.6
2024-04-09T12:06:35.463Z,2.4
2024-04-09T12:07:47.413Z,0.5
2024-04-09T12:08:59.434Z,0.8
2024-04-09T12:10:11.406Z,0.9
2024-04-09T12:11:23.438Z,0.8
2024-04-09T12:12:35.389Z,1
2024-04-09T12:13:47.399Z,1
2024-04-09T12:14:59.417Z,0.8
2024-04-09T12:16:11.406Z,2.4
2024-04-09T12:17:23.418Z,1
2024-04-09T12:18:35.614Z,1.8
2024-04-09T12:19:47.436Z,2.9
2024-04-09T12:20:59.405Z,1.5
2024-04-09T12:22:11.389Z,1.1
2024-04-09T12:23:23.429Z,0.9
2024-04-09T12:24:35.493Z,1.1
2024-04-09T12:25:47.405Z,0.5
2024-04-09T12:26:59.392Z,1.2
2024-04-09T12:28:11.404Z,1.5
2024-04-09T12:29:23.435Z,1.2
2024-04-09T12:30:35.477Z,1
2024-04-09T12:31:47.421Z,1
2024-04-09T12:32:59.564Z,2.7
2024-04-09T12:34:11.457Z,0.8
2024-04-09T12:35:23.435Z,1.5
2024-04-09T12:36:35.432Z,1.9
2024-04-09T12:37:47.426Z,0.9
2024-04-09T12:38:59.438Z,0.5
2024-04-09T12:40:11.418Z,0.8
2024-04-09T12:41:24.908Z,1.1
2024-04-09T12:42:35.482Z,2.1
2024-04-09T12:43:47.410Z,1.9
2024-04-09T12:44:59.415Z,0.7
2024-04-09T12:46:11.454Z,0.8
2024-04-09T12:47:23.427Z,1.6
2024-04-09T12:48:35.704Z,1.5
2024-04-09T12:49:47.444Z,0.6
2024-04-09T12:50:59.389Z,0.7
2024-04-09T12:52:11.847Z,0.9
2024-04-09T12:53:23.844Z,2.4
2024-04-09T12:54:35.909Z,2.5
2024-04-09T12:55:47.863Z,1.3
2024-04-09T12:56:59.879Z,0.9
2024-04-09T12:58:11.855Z,1
2024-04-09T12:59:30.305Z,0.7
2024-04-09T13:01:47.935Z,0.9
2024-04-09T13:02:59.974Z,0
2024-04-09T13:04:14.114Z,0.8
2024-04-09T13:05:24.186Z,0.5
2024-04-09T13:06:35.965Z,0.7
2024-04-09T13:07:47.879Z,1
2024-04-09T13:08:59.877Z,3.5
2024-04-09T13:10:11.830Z,1.3
2024-04-09T13:11:23.963Z,2.5
2024-04-09T13:12:35.868Z,1.9
2024-04-09T13:13:47.851Z,1.1
2024-04-09T13:17:23.954Z,0.8
2024-04-09T13:18:35.901Z,0.7
2024-04-09T13:19:47.922Z,0
2024-04-09T13:20:59.886Z,0.8
2024-04-09T13:22:11.871Z,0.7
2024-04-09T13:23:23.872Z,1.2
2024-04-09T13:24:35.855Z,1
2024-04-09T13:25:47.871Z,2.4
2024-04-09T13:26:59.862Z,2.5
2024-04-09T13:28:11.844Z,2.2
2024-04-09T13:29:24.207Z,0.8
2024-04-09T13:30:35.908Z,1.6
2024-04-09T13:31:47.891Z,1.1
2024-04-09T13:32:59.880Z,1
2024-04-09T13:34:11.882Z,1
2024-04-09T13:35:23.997Z,2.4
2024-04-09T13:36:35.887Z,1.5
2024-04-09T13:37:47.903Z,1
2024-04-09T13:38:59.854Z,1.1
2024-04-09T13:40:11.860Z,2.4
2024-04-09T13:41:23.913Z,0.9
2024-04-09T13:42:35.843Z,0.7
2024-04-09T13:43:47.888Z,1.9
2024-04-09T13:44:59.861Z,2.4
2024-04-09T13:46:11.861Z,2.3
2024-04-09T13:47:24.145Z,1.9
2024-04-09T13:48:35.942Z,1.1
2024-04-09T13:49:47.867Z,0.8
2024-04-09T13:50:59.846Z,1.1
2024-04-09T13:52:12.336Z,2.3
2024-04-09T13:53:24.459Z,1
2024-04-09T13:54:36.274Z,1.8
2024-04-09T13:55:48.314Z,2.4
2024-04-09T13:57:00.294Z,2.4
2024-04-09T13:58:12.320Z,3.2
2024-04-09T13:59:24.314Z,1.9
2024-04-09T14:00:36.373Z,3
2024-04-09T14:01:48.313Z,1
2024-04-09T14:03:00.366Z,1.1
2024-04-09T14:04:12.325Z,2.1
2024-04-09T14:05:24.455Z,1.1
2024-04-09T14:06:36.306Z,3
2024-04-09T14:07:48.324Z,2.4
2024-04-09T14:09:00.286Z,1
2024-04-09T14:10:12.311Z,2.4
2024-04-09T14:11:24.460Z,1.1
2024-04-09T14:12:36.473Z,2.6
2024-04-09T14:13:48.306Z,1
2024-04-09T14:15:00.320Z,1.2
2024-04-09T14:16:12.288Z,1.2
2024-04-09T14:17:24.468Z,0.7
2024-04-09T14:18:36.346Z,0.9
2024-04-09T14:19:48.371Z,0.9
2024-04-09T14:21:00.289Z,0.5
2024-04-09T14:22:12.297Z,2.5
2024-04-09T14:23:24.573Z,0
2024-04-09T14:24:36.289Z,0.7
2024-04-09T14:25:48.332Z,0.8
2024-04-09T14:27:00.285Z,0
2024-04-09T14:28:12.309Z,0.7
2024-04-09T14:29:24.518Z,0.7
2024-04-09T14:30:36.313Z,2.5
2024-04-09T14:31:48.325Z,2.4
2024-04-09T14:33:00.404Z,1.7
2024-04-09T14:34:12.417Z,2.5
2024-04-09T14:35:24.378Z,1.1
2024-04-09T14:36:36.289Z,1.5
2024-04-09T14:37:48.330Z,0.8
2024-04-09T14:39:00.306Z,2.7
2024-04-09T14:40:12.312Z,2.7
2024-04-09T14:41:24.348Z,2.9
2024-04-09T14:42:36.298Z,0.8
2024-04-09T14:43:48.334Z,1.4
2024-04-09T14:45:00.272Z,1.8
2024-04-09T14:46:12.310Z,1.6
2024-04-09T14:47:24.433Z,2.9
2024-04-09T14:48:36.590Z,2.9
2024-04-09T14:49:48.325Z,0.9
2024-04-09T14:51:00.299Z,1.9
2024-04-09T14:52:12.289Z,2.4
2024-04-09T14:53:24.392Z,1.9
2024-04-09T14:54:36.309Z,1.3
2024-04-09T14:55:48.293Z,2.4
2024-04-09T14:57:00.318Z,1
2024-04-09T14:58:12.307Z,3.1
2024-04-09T15:00:24.445Z,2.1
2024-04-09T15:01:36.293Z,1.3
2024-04-09T15:02:48.377Z,2.3
2024-04-09T15:04:00.353Z,0
2024-04-09T15:05:12.306Z,1.3
2024-04-09T15:06:24.315Z,2.4
2024-04-09T15:07:36.318Z,0
2024-04-09T15:08:48.313Z,1.6
2024-04-09T15:10:00.352Z,2.1
2024-04-09T15:11:12.398Z,0
2024-04-09T15:12:24.369Z,1.6
2024-04-09T15:13:36.280Z,0.7
2024-04-09T15:14:48.316Z,1.2
2024-04-09T15:16:00.331Z,1
2024-04-09T15:17:12.378Z,1
2024-04-09T15:18:24.488Z,0.8
2024-04-09T15:19:36.305Z,1.1
2024-04-09T15:20:48.301Z,2.5
2024-04-09T15:22:00.338Z,0
2024-04-09T15:23:12.293Z,1.9
2024-04-09T15:24:24.307Z,2.9
2024-04-09T15:25:36.342Z,1.1
2024-04-09T15:26:48.319Z,1.1
2024-04-09T15:28:00.338Z,1.6
2024-04-09T15:29:12.299Z,1.5
2024-04-09T15:30:24.348Z,1
2024-04-09T15:31:36.322Z,2.4
2024-04-09T15:32:48.430Z,2.4
2024-04-09T15:34:00.358Z,0.9
2024-04-09T15:35:12.458Z,0.8
2024-04-09T15:36:24.302Z,0.7
2024-04-09T15:37:36.359Z,0
2024-04-09T15:38:48.314Z,0.8
2024-04-09T15:40:00.310Z,1.9
2024-04-09T15:41:12.383Z,1.6
2024-04-09T15:42:24.297Z,1
2024-04-09T15:43:36.289Z,1.1
2024-04-09T15:44:48.294Z,1.6
2024-04-09T15:46:00.351Z,1.3
2024-04-09T15:47:12.396Z,2.7
2024-04-09T15:48:24.492Z,0.8
2024-04-09T15:49:36.306Z,1.6
2024-04-09T15:51:12.729Z,0.9
2024-04-09T15:52:24.743Z,1.8
2024-04-09T15:53:36.797Z,0.9
2024-04-09T15:54:48.751Z,0.8
2024-04-09T15:56:00.752Z,1
2024-04-09T15:57:12.722Z,2.6
2024-04-09T15:58:24.783Z,1.6
2024-04-09T15:59:36.758Z,1.9
2024-04-09T16:00:48.806Z,0
2024-04-09T16:02:00.811Z,1.6
2024-04-09T16:03:12.764Z,1.1
2024-04-09T16:04:24.763Z,0.6
2024-04-09T16:05:36.894Z,0
2024-04-09T16:06:48.750Z,0.9
2024-04-09T16:08:00.804Z,0.9
2024-04-09T16:09:12.766Z,1.3
2024-04-09T16:10:24.738Z,0.9
2024-04-09T16:11:36.786Z,1.2
2024-04-09T16:12:48.734Z,1
2024-04-09T16:14:00.846Z,1
2024-04-09T16:15:12.752Z,0.5
2024-04-09T16:16:24.725Z,2.5
2024-04-09T16:17:36.842Z,2.7
2024-04-09T16:18:48.952Z,2.6
2024-04-09T16:20:00.823Z,1.2
2024-04-09T16:21:12.732Z,1.5
2024-04-09T16:22:24.748Z,1.9
2024-04-09T16:23:36.748Z,2.4
2024-04-09T16:24:48.741Z,0.8
2024-04-09T16:26:00.978Z,1.4
2024-04-09T16:27:12.746Z,2.1
2024-04-09T16:28:24.751Z,0.8
2024-04-09T16:29:36.886Z,0.7
2024-04-09T16:30:48.734Z,1.4
2024-04-09T16:32:00.798Z,0.8
2024-04-09T16:33:12.809Z,1.1
2024-04-09T16:34:24.766Z,2.1
2024-04-09T16:36:00.755Z,3.1
2024-04-09T16:37:12.780Z,1.5
2024-04-09T16:38:36.729Z,1.3
2024-04-09T16:39:48.827Z,1.2
2024-04-09T16:41:00.798Z,1
2024-04-09T16:42:12.734Z,0.9
2024-04-09T16:43:24.726Z,1.6
2024-04-09T16:44:36.796Z,1.6
2024-04-09T16:45:48.737Z,0.6
2024-04-09T16:47:01.131Z,1
2024-04-09T16:48:00.883Z,1.8
2024-04-09T16:49:12.774Z,2.4
2024-04-09T16:50:24.894Z,1.1
2024-04-09T16:51:37.345Z,1.9
2024-04-09T16:52:49.253Z,2.6
2024-04-09T16:54:01.214Z,0.8
2024-04-09T16:55:13.184Z,0.7
2024-04-09T16:56:25.226Z,0.5
2024-04-09T16:57:41.404Z,3.2
2024-04-09T16:58:49.291Z,1.5
2024-04-09T17:00:01.248Z,0.8
2024-04-09T17:01:13.219Z,2.5
2024-04-09T17:02:25.240Z,3.1
2024-04-09T17:03:37.388Z,2.1
2024-04-09T17:04:49.368Z,2.4
2024-04-09T17:06:01.205Z,0.8
2024-04-09T17:07:13.236Z,1.6
2024-04-09T17:08:25.259Z,1.9
2024-04-09T17:09:37.170Z,1.8